createdAt,value
2023-02-17T00:01:11.564Z,20.38
2023-02-17T00:05:08.598Z,18.20
2023-02-17T00:10:08.056Z,16.40
2023-02-17T00:15:08.087Z,17.05
2023-02-17T00:20:08.116Z,18.58
2023-02-17T00:25:08.182Z,16.48
2023-02-17T00:30:08.248Z,16.92
2023-02-17T00:35:08.237Z,17.92
2023-02-17T00:40:08.270Z,18.55
2023-02-17T00:45:08.612Z,16.13
2023-02-17T00:50:08.650Z,17.55
2023-02-17T00:55:08.709Z,15.70
2023-02-17T01:00:08.780Z,15.90
2023-02-17T01:05:08.846Z,15.93
2023-02-17T01:10:08.839Z,16.40
2023-02-17T01:15:08.871Z,14.68
2023-02-17T01:20:08.964Z,16.50
2023-02-17T01:25:07.964Z,15.23
2023-02-17T01:30:08.055Z,14.20
2023-02-17T01:35:08.162Z,16.40
2023-02-17T01:40:08.254Z,14.80
2023-02-17T01:45:08.327Z,13.05
2023-02-17T01:50:08.400Z,14.43
2023-02-17T01:55:08.425Z,14.18
2023-02-17T02:00:08.467Z,13.40
2023-02-17T02:05:08.609Z,16.35
2023-02-17T02:10:08.661Z,15.13
2023-02-17T02:15:08.712Z,13.60
2023-02-17T02:20:08.717Z,15.07
2023-02-17T02:25:08.722Z,15.48
2023-02-17T02:30:08.793Z,12.55
2023-02-17T02:35:08.845Z,11.27
2023-02-17T02:40:08.933Z,11.30
2023-02-17T02:45:07.968Z,9.90
2023-02-17T02:50:07.975Z,9.63
2023-02-17T02:55:08.017Z,9.25
2023-02-17T03:00:08.055Z,9.35
2023-02-17T03:05:08.086Z,9.75
2023-02-17T03:10:08.125Z,9.48
2023-02-17T03:15:08.121Z,10.45
2023-02-17T03:20:08.142Z,8.63
2023-02-17T03:25:08.179Z,9.35
2023-02-17T03:30:08.283Z,8.98
2023-02-17T03:35:08.351Z,11.60
2023-02-17T03:40:08.382Z,9.50
2023-02-17T03:45:08.442Z,12.18
2023-02-17T03:50:08.510Z,11.00
2023-02-17T03:55:08.549Z,11.73
2023-02-17T04:00:08.568Z,11.85
2023-02-17T04:05:08.578Z,11.70
2023-02-17T04:10:09.514Z,12.38
2023-02-17T04:15:08.712Z,11.60
2023-02-17T04:20:08.805Z,12.77
2023-02-17T04:25:08.851Z,14.18
2023-02-17T04:30:10.797Z,12.23
2023-02-17T04:35:08.011Z,12.77
2023-02-17T04:40:08.015Z,12.45
2023-02-17T04:45:08.050Z,12.40
2023-02-17T04:50:08.091Z,13.68
2023-02-17T04:55:08.089Z,12.15
2023-02-17T05:00:08.075Z,9.90
2023-02-17T05:05:02.430Z,9.63
2023-02-17T05:10:02.597Z,8.60
2023-02-17T05:15:02.736Z,7.63
2023-02-17T05:20:02.828Z,7.57
2023-02-17T05:25:02.943Z,9.05
2023-02-17T05:30:03.075Z,8.23
2023-02-17T05:35:02.254Z,8.20
2023-02-17T05:40:02.455Z,7.85
2023-02-17T05:45:02.910Z,7.65
2023-02-17T05:50:03.058Z,7.72
2023-02-17T05:55:02.289Z,6.88
2023-02-17T06:00:02.453Z,7.47
2023-02-17T06:05:02.743Z,6.68
2023-02-17T06:10:03.031Z,6.40
2023-02-17T06:15:02.270Z,6.10
2023-02-17T06:20:02.522Z,5.82
2023-02-17T06:25:02.899Z,6.70
2023-02-17T06:30:03.231Z,6.00
2023-02-17T06:35:02.542Z,6.72
2023-02-17T06:40:02.651Z,6.35
2023-02-17T06:45:03.043Z,5.80
2023-02-17T06:50:02.176Z,6.65
2023-02-17T06:55:02.378Z,6.47
2023-02-17T07:00:02.492Z,5.32
2023-02-17T07:05:02.703Z,6.75
2023-02-17T07:10:02.995Z,7.55
2023-02-17T07:15:02.303Z,6.97
2023-02-17T07:20:02.425Z,8.02
2023-02-17T07:25:02.775Z,9.95
2023-02-17T07:30:03.106Z,7.70
2023-02-17T07:35:02.419Z,9.80
2023-02-17T07:40:02.579Z,9.32
2023-02-17T07:45:02.778Z,10.35
2023-02-17T07:50:02.983Z,9.20
2023-02-17T07:55:02.220Z,9.93
2023-02-17T08:00:02.396Z,10.13
2023-02-17T08:05:02.639Z,10.07
2023-02-17T08:10:02.973Z,10.43
2023-02-17T08:15:02.263Z,10.07
2023-02-17T08:20:08.636Z,9.90
2023-02-17T08:25:02.336Z,9.52
2023-02-17T08:30:02.573Z,10.32
2023-02-17T08:35:02.712Z,10.70
2023-02-17T08:40:02.981Z,11.13
2023-02-17T08:45:02.274Z,9.15
2023-02-17T08:50:02.625Z,8.98
2023-02-17T08:55:02.725Z,9.52
2023-02-17T09:00:04.850Z,9.23
2023-02-17T09:05:02.661Z,9.18
2023-02-17T09:10:02.979Z,9.52
2023-02-17T09:15:02.222Z,8.82
2023-02-17T09:20:02.448Z,8.43
2023-02-17T09:25:02.704Z,8.32
2023-02-17T09:30:03.079Z,8.50
2023-02-17T09:35:02.339Z,8.95
2023-02-17T09:40:02.415Z,9.57
2023-02-17T09:45:02.624Z,8.45
2023-02-17T09:50:02.860Z,9.85
2023-02-17T09:55:03.114Z,9.48
2023-02-17T10:00:02.305Z,9.20
2023-02-17T10:05:02.578Z,9.00
2023-02-17T10:10:03.004Z,8.85
2023-02-17T10:15:02.223Z,9.43
2023-02-17T10:20:10.409Z,8.32
2023-02-17T10:25:12.558Z,0
2023-02-17T10:30:02.737Z,8.63
2023-02-17T10:35:03.054Z,8.73
2023-02-17T10:40:02.227Z,8.88
2023-02-17T10:45:02.484Z,9.15
2023-02-17T10:50:02.745Z,9.48
2023-02-17T10:55:06.508Z,9.32
2023-02-17T11:00:02.737Z,8.73
2023-02-17T11:05:02.999Z,9.48
2023-02-17T11:10:02.237Z,9.57
2023-02-17T11:15:02.400Z,8.85
2023-02-17T11:20:02.714Z,9.32
2023-02-17T11:25:03.055Z,9.30
2023-02-17T11:30:02.272Z,7.88
2023-02-17T11:35:02.480Z,8.90
2023-02-17T11:40:02.611Z,8.30
2023-02-17T11:45:02.862Z,8.05
2023-02-17T11:50:02.994Z,8.13
2023-02-17T11:55:02.135Z,8.27
2023-02-17T12:00:02.378Z,8.25
2023-02-17T12:05:02.582Z,8.70
2023-02-17T12:10:02.803Z,8.55
2023-02-17T12:15:12.989Z,0
2023-02-17T12:20:02.186Z,9.25
2023-02-17T12:25:02.280Z,9.60
2023-02-17T12:30:02.510Z,8.75
2023-02-17T12:35:02.735Z,9.65
2023-02-17T12:40:03.048Z,8.80
2023-02-17T12:45:12.176Z,0
2023-02-17T12:50:02.445Z,8.82
2023-02-17T12:55:02.607Z,9.35
2023-02-17T13:00:02.745Z,8.50
2023-02-17T13:05:02.879Z,7.93
2023-02-17T13:10:03.004Z,6.95
2023-02-17T13:15:02.230Z,5.28
2023-02-17T13:20:02.461Z,5.40
2023-02-17T13:25:02.692Z,4.88
2023-02-17T13:30:03.037Z,5.00
2023-02-17T13:35:02.292Z,4.65
2023-02-17T13:40:02.364Z,4.53
2023-02-17T13:45:02.490Z,5.07
2023-02-17T13:50:02.630Z,5.80
2023-02-17T13:55:02.757Z,5.22
2023-02-17T14:00:12.866Z,0
2023-02-17T14:05:03.191Z,5.40
2023-02-17T14:10:02.394Z,5.13
2023-02-17T14:15:02.643Z,4.82
2023-02-17T14:20:02.857Z,4.25
2023-02-17T14:25:03.076Z,4.28
2023-02-17T14:30:05.148Z,4.40
2023-02-17T14:35:02.832Z,3.72
2023-02-17T14:40:03.096Z,4.30
2023-02-17T14:45:02.310Z,3.88
2023-02-17T14:50:02.493Z,3.78
2023-02-17T14:55:02.729Z,3.92
2023-02-17T15:00:02.925Z,3.72
2023-02-17T15:05:03.246Z,3.90
2023-02-17T15:10:02.417Z,4.68
2023-02-17T15:15:02.585Z,3.80
2023-02-17T15:20:02.760Z,3.90
2023-02-17T15:25:02.968Z,3.50
2023-02-17T15:30:02.205Z,3.65
2023-02-17T15:35:02.369Z,3.47
2023-02-17T15:40:02.662Z,3.28
2023-02-17T15:45:02.766Z,3.38
2023-02-17T15:50:02.968Z,3.38
2023-02-17T15:55:02.182Z,3.03
2023-02-17T16:00:02.273Z,3.00
2023-02-17T16:05:02.417Z,3.00
2023-02-17T16:10:02.703Z,2.78
2023-02-17T16:15:03.030Z,2.80
2023-02-17T16:20:02.294Z,3.03
2023-02-17T16:25:02.417Z,3.45
2023-02-17T16:30:12.671Z,0
2023-02-17T16:35:02.873Z,3.60
2023-02-17T16:40:03.110Z,3.70
2023-02-17T16:45:02.270Z,3.90
2023-02-17T16:50:02.530Z,3.45
2023-02-17T16:55:02.695Z,3.47
2023-02-17T17:00:02.840Z,3.63
2023-02-17T17:05:03.056Z,3.58
2023-02-17T17:10:15.718Z,3.92
2023-02-17T17:15:03.154Z,3.50
2023-02-17T17:20:02.352Z,3.63
2023-02-17T17:25:02.554Z,3.85
2023-02-17T17:30:02.765Z,3.88
2023-02-17T17:35:03.002Z,3.03
2023-02-17T17:40:02.263Z,3.75
2023-02-17T17:45:02.480Z,3.90
2023-02-17T17:50:02.606Z,3.80
2023-02-17T17:55:02.895Z,3.88
2023-02-17T18:00:03.105Z,4.40
2023-02-17T18:05:02.516Z,4.97
2023-02-17T18:10:02.788Z,4.55
2023-02-17T18:15:03.078Z,5.50
2023-02-17T18:20:02.376Z,5.40
2023-02-17T18:25:02.639Z,4.75
2023-02-17T18:30:02.855Z,5.70
2023-02-17T18:35:03.163Z,5.93
2023-02-17T18:40:02.301Z,5.47
2023-02-17T18:45:02.425Z,5.88
2023-02-17T18:50:02.583Z,5.55
2023-02-17T18:55:02.697Z,5.43
2023-02-17T19:00:02.839Z,5.80
2023-02-17T19:05:03.002Z,5.25
2023-02-17T19:10:02.182Z,5.60
2023-02-17T19:15:02.500Z,6.32
2023-02-17T19:20:02.736Z,6.55
2023-02-17T19:25:02.783Z,7.32
2023-02-17T19:30:02.988Z,7.40
2023-02-17T19:35:02.180Z,6.75
2023-02-17T19:40:02.266Z,5.93
2023-02-17T19:45:02.579Z,5.32
2023-02-17T19:50:02.745Z,4.60
2023-02-17T19:55:03.083Z,6.40
2023-02-17T20:00:02.266Z,6.53
2023-02-17T20:05:02.398Z,7.55
2023-02-17T20:10:02.650Z,6.70
2023-02-17T20:15:02.807Z,6.60
2023-02-17T20:20:03.077Z,6.75
2023-02-17T20:25:02.196Z,7.47
2023-02-17T20:30:02.550Z,7.22
2023-02-17T20:35:02.964Z,8.45
2023-02-17T20:40:02.135Z,7.80
2023-02-17T20:45:02.865Z,10.25
2023-02-17T20:50:07.765Z,9.30
2023-02-17T20:55:02.966Z,8.88
2023-02-17T21:00:02.129Z,8.82
2023-02-17T21:05:02.282Z,10.43
2023-02-17T21:10:02.416Z,9.43
2023-02-17T21:15:02.566Z,9.65
2023-02-17T21:20:02.837Z,11.15
2023-02-17T21:25:02.999Z,11.98
2023-02-17T21:30:02.293Z,12.88
2023-02-17T21:35:02.433Z,11.40
2023-02-17T21:40:02.602Z,11.30
2023-02-17T21:45:02.780Z,10.55
2023-02-17T21:50:03.058Z,12.85
2023-02-17T21:55:02.228Z,11.55
2023-02-17T22:00:02.318Z,12.13
2023-02-17T22:05:02.461Z,11.52
2023-02-17T22:10:02.707Z,11.77
2023-02-17T22:15:02.821Z,11.40
2023-02-17T22:20:02.958Z,12.55
2023-02-17T22:25:02.078Z,10.88
2023-02-17T22:30:02.425Z,12.80
2023-02-17T22:35:02.763Z,11.90
2023-02-17T22:40:02.973Z,12.18
2023-02-17T22:45:02.169Z,12.48
2023-02-17T22:50:02.388Z,14.80
2023-02-17T22:55:02.582Z,14.15
2023-02-17T23:00:02.860Z,13.88
2023-02-17T23:05:15.825Z,14.65
2023-02-17T23:10:08.848Z,13.15
2023-02-17T23:15:08.858Z,16.67
2023-02-17T23:20:08.896Z,16.58
2023-02-17T23:25:09.026Z,16.60
2023-02-17T23:30:08.051Z,16.02
2023-02-17T23:35:08.055Z,16.02
2023-02-17T23:40:08.116Z,17.77
2023-02-17T23:45:08.133Z,18.63
2023-02-17T23:50:08.156Z,21.08
2023-02-17T23:55:08.214Z,19.50
